sensor_id;sensor_type;location;lat;lon;timestamp;temperature;humidity
20512;DHT22;10414;52.074;5.126;2022-10-15T00:00:35;14.60;99.90
20512;DHT22;10414;52.074;5.126;2022-10-15T00:03:03;14.70;99.90
20512;DHT22;10414;52.074;5.126;2022-10-15T00:05:31;14.80;99.90
20512;DHT22;10414;52.074;5.126;2022-10-15T00:07:58;14.70;99.90
20512;DHT22;10414;52.074;5.126;2022-10-15T00:10:24;14.70;99.90
20512;DHT22;10414;52.074;5.126;2022-10-15T00:12:51;14.80;99.90
20512;DHT22;10414;52.074;5.126;2022-10-15T00:15:18;14.80;99.90
20512;DHT22;10414;52.074;5.126;2022-10-15T00:17:45;14.80;99.90
20512;DHT22;10414;52.074;5.126;2022-10-15T00:20:12;14.60;99.90
20512;DHT22;10414;52.074;5.126;2022-10-15T00:22:41;14.60;99.90
20512;DHT22;10414;52.074;5.126;2022-10-15T00:25:09;14.70;99.90
20512;DHT22;10414;52.074;5.126;2022-10-15T00:27:36;14.60;99.90
20512;DHT22;10414;52.074;5.126;2022-10-15T00:30:04;14.60;99.90
20512;DHT22;10414;52.074;5.126;2022-10-15T00:32:32;14.60;99.90
20512;DHT22;10414;52.074;5.126;2022-10-15T00:34:59;14.80;99.90
20512;DHT22;10414;52.074;5.126;2022-10-15T00:37:26;14.80;99.90
20512;DHT22;10414;52.074;5.126;2022-10-15T00:39:54;14.60;99.90
20512;DHT22;10414;52.074;5.126;2022-10-15T00:42:21;14.60;99.90
20512;DHT22;10414;52.074;5.126;2022-10-15T00:44:51;14.60;99.90
20512;DHT22;10414;52.074;5.126;2022-10-15T00:47:23;14.70;99.90
20512;DHT22;10414;52.074;5.126;2022-10-15T00:49:57;14.60;99.90
20512;DHT22;10414;52.074;5.126;2022-10-15T00:52:30;14.50;99.90
20512;DHT22;10414;52.074;5.126;2022-10-15T00:55:03;14.50;99.90
20512;DHT22;10414;52.074;5.126;2022-10-15T00:57:32;14.70;99.90
20512;DHT22;10414;52.074;5.126;2022-10-15T01:00:03;14.70;99.90
20512;DHT22;10414;52.074;5.126;2022-10-15T01:02:31;14.50;99.90
20512;DHT22;10414;52.074;5.126;2022-10-15T01:04:58;14.50;99.90
20512;DHT22;10414;52.074;5.126;2022-10-15T01:07:25;14.50;99.90
20512;DHT22;10414;52.074;5.126;2022-10-15T01:09:52;14.40;99.90
20512;DHT22;10414;52.074;5.126;2022-10-15T01:12:27;14.30;99.90
20512;DHT22;10414;52.074;5.126;2022-10-15T01:15:03;14.40;99.90
20512;DHT22;10414;52.074;5.126;2022-10-15T01:17:36;14.40;99.90
20512;DHT22;10414;52.074;5.126;2022-10-15T01:20:35;14.30;99.90
20512;DHT22;10414;52.074;5.126;2022-10-15T01:23:18;14.30;99.90
20512;DHT22;10414;52.074;5.126;2022-10-15T01:25:58;14.20;99.90
20512;DHT22;10414;52.074;5.126;2022-10-15T01:28:33;14.10;99.90
20512;DHT22;10414;52.074;5.126;2022-10-15T01:31:08;13.90;99.90
20512;DHT22;10414;52.074;5.126;2022-10-15T01:33:43;13.90;99.90
20512;DHT22;10414;52.074;5.126;2022-10-15T01:36:16;13.90;99.90
20512;DHT22;10414;52.074;5.126;2022-10-15T01:38:50;13.80;99.90
20512;DHT22;10414;52.074;5.126;2022-10-15T01:41:26;13.80;99.90
20512;DHT22;10414;52.074;5.126;2022-10-15T01:43:59;13.80;99.90
20512;DHT22;10414;52.074;5.126;2022-10-15T01:46:35;13.80;99.90
20512;DHT22;10414;52.074;5.126;2022-10-15T01:49:03;13.80;99.90
20512;DHT22;10414;52.074;5.126;2022-10-15T01:51:32;13.90;99.90
20512;DHT22;10414;52.074;5.126;2022-10-15T01:54:01;14.00;99.90
20512;DHT22;10414;52.074;5.126;2022-10-15T01:56:32;14.00;99.90
20512;DHT22;10414;52.074;5.126;2022-10-15T01:59:01;13.90;99.90
20512;DHT22;10414;52.074;5.126;2022-10-15T02:01:30;14.00;99.90
20512;DHT22;10414;52.074;5.126;2022-10-15T02:03:57;14.00;99.90
20512;DHT22;10414;52.074;5.126;2022-10-15T02:06:27;14.10;99.90
20512;DHT22;10414;52.074;5.126;2022-10-15T02:09:02;14.10;99.90
20512;DHT22;10414;52.074;5.126;2022-10-15T02:11:42;14.20;99.90
20512;DHT22;10414;52.074;5.126;2022-10-15T02:14:16;14.20;99.90
20512;DHT22;10414;52.074;5.126;2022-10-15T02:16:53;14.30;99.90
20512;DHT22;10414;52.074;5.126;2022-10-15T02:19:28;14.20;99.90
20512;DHT22;10414;52.074;5.126;2022-10-15T02:22:02;14.20;99.90
20512;DHT22;10414;52.074;5.126;2022-10-15T02:24:35;14.20;99.90
20512;DHT22;10414;52.074;5.126;2022-10-15T02:27:06;14.20;99.90
20512;DHT22;10414;52.074;5.126;2022-10-15T02:29:35;14.20;99.90
20512;DHT22;10414;52.074;5.126;2022-10-15T02:32:05;14.20;99.90
20512;DHT22;10414;52.074;5.126;2022-10-15T02:34:33;14.20;99.90
20512;DHT22;10414;52.074;5.126;2022-10-15T02:37:04;14.20;99.90
20512;DHT22;10414;52.074;5.126;2022-10-15T02:39:32;14.40;99.90
20512;DHT22;10414;52.074;5.126;2022-10-15T02:41:59;14.20;99.90
20512;DHT22;10414;52.074;5.126;2022-10-15T02:44:26;14.30;99.90
20512;DHT22;10414;52.074;5.126;2022-10-15T02:46:53;14.20;99.90
20512;DHT22;10414;52.074;5.126;2022-10-15T02:49:22;14.10;99.90
20512;DHT22;10414;52.074;5.126;2022-10-15T02:51:49;14.00;99.90
20512;DHT22;10414;52.074;5.126;2022-10-15T02:54:16;14.10;99.90
20512;DHT22;10414;52.074;5.126;2022-10-15T02:56:43;14.00;99.90
20512;DHT22;10414;52.074;5.126;2022-10-15T02:59:10;14.30;99.90
20512;DHT22;10414;52.074;5.126;2022-10-15T03:01:37;14.10;99.90
20512;DHT22;10414;52.074;5.126;2022-10-15T03:04:04;13.90;99.90
20512;DHT22;10414;52.074;5.126;2022-10-15T03:06:32;13.90;99.90
20512;DHT22;10414;52.074;5.126;2022-10-15T03:09:00;13.80;99.90
20512;DHT22;10414;52.074;5.126;2022-10-15T03:11:26;13.80;99.90
20512;DHT22;10414;52.074;5.126;2022-10-15T03:13:53;14.00;99.90
20512;DHT22;10414;52.074;5.126;2022-10-15T03:16:20;13.80;99.90
20512;DHT22;10414;52.074;5.126;2022-10-15T03:18:47;14.00;99.90
20512;DHT22;10414;52.074;5.126;2022-10-15T03:21:14;14.00;99.90
20512;DHT22;10414;52.074;5.126;2022-10-15T03:23:43;14.00;99.90
20512;DHT22;10414;52.074;5.126;2022-10-15T03:26:10;14.00;99.90
20512;DHT22;10414;52.074;5.126;2022-10-15T03:28:36;14.00;99.90
20512;DHT22;10414;52.074;5.126;2022-10-15T03:31:04;14.00;99.90
20512;DHT22;10414;52.074;5.126;2022-10-15T03:33:31;14.00;99.90
20512;DHT22;10414;52.074;5.126;2022-10-15T03:35:58;13.90;99.90
20512;DHT22;10414;52.074;5.126;2022-10-15T03:38:24;13.80;99.90
20512;DHT22;10414;52.074;5.126;2022-10-15T03:40:53;13.80;99.90
20512;DHT22;10414;52.074;5.126;2022-10-15T03:43:22;13.90;99.90
20512;DHT22;10414;52.074;5.126;2022-10-15T03:45:50;13.70;99.90
20512;DHT22;10414;52.074;5.126;2022-10-15T03:48:18;13.80;99.90
20512;DHT22;10414;52.074;5.126;2022-10-15T03:50:45;13.70;99.90
20512;DHT22;10414;52.074;5.126;2022-10-15T03:53:12;13.60;99.90
20512;DHT22;10414;52.074;5.126;2022-10-15T03:55:39;13.60;99.90
20512;DHT22;10414;52.074;5.126;2022-10-15T03:58:07;13.40;99.90
20512;DHT22;10414;52.074;5.126;2022-10-15T04:00:34;13.40;99.90
20512;DHT22;10414;52.074;5.126;2022-10-15T04:03:01;13.60;99.90
20512;DHT22;10414;52.074;5.126;2022-10-15T04:05:28;13.40;99.90
20512;DHT22;10414;52.074;5.126;2022-10-15T04:07:55;13.50;99.90
20512;DHT22;10414;52.074;5.126;2022-10-15T04:10:22;13.40;99.90
20512;DHT22;10414;52.074;5.126;2022-10-15T04:12:49;13.30;99.90
20512;DHT22;10414;52.074;5.126;2022-10-15T04:15:18;13.40;99.90
20512;DHT22;10414;52.074;5.126;2022-10-15T04:17:45;13.40;99.90
20512;DHT22;10414;52.074;5.126;2022-10-15T04:20:12;13.30;99.90
20512;DHT22;10414;52.074;5.126;2022-10-15T04:22:39;13.40;99.90
20512;DHT22;10414;52.074;5.126;2022-10-15T04:25:07;13.30;99.90
20512;DHT22;10414;52.074;5.126;2022-10-15T04:27:34;13.40;99.90
20512;DHT22;10414;52.074;5.126;2022-10-15T04:30:00;13.40;99.90
20512;DHT22;10414;52.074;5.126;2022-10-15T04:32:29;13.40;99.90
20512;DHT22;10414;52.074;5.126;2022-10-15T04:34:56;13.40;99.90
20512;DHT22;10414;52.074;5.126;2022-10-15T04:37:23;13.50;99.90
20512;DHT22;10414;52.074;5.126;2022-10-15T04:39:49;13.60;99.90
20512;DHT22;10414;52.074;5.126;2022-10-15T04:42:16;13.60;99.90
20512;DHT22;10414;52.074;5.126;2022-10-15T04:44:43;13.70;99.90
20512;DHT22;10414;52.074;5.126;2022-10-15T04:47:11;13.80;99.90
20512;DHT22;10414;52.074;5.126;2022-10-15T04:49:39;13.80;99.90
20512;DHT22;10414;52.074;5.126;2022-10-15T04:52:06;13.80;99.90
20512;DHT22;10414;52.074;5.126;2022-10-15T04:54:33;13.70;99.90
20512;DHT22;10414;52.074;5.126;2022-10-15T04:57:01;13.80;99.90
20512;DHT22;10414;52.074;5.126;2022-10-15T04:59:28;13.80;99.90
20512;DHT22;10414;52.074;5.126;2022-10-15T05:01:55;13.80;99.90
20512;DHT22;10414;52.074;5.126;2022-10-15T05:04:22;13.70;99.90
20512;DHT22;10414;52.074;5.126;2022-10-15T05:06:50;13.70;99.90
20512;DHT22;10414;52.074;5.126;2022-10-15T05:09:17;13.80;99.90
20512;DHT22;10414;52.074;5.126;2022-10-15T05:11:44;13.70;99.90
20512;DHT22;10414;52.074;5.126;2022-10-15T05:14:11;13.60;99.90
20512;DHT22;10414;52.074;5.126;2022-10-15T05:16:39;13.60;99.90
20512;DHT22;10414;52.074;5.126;2022-10-15T05:19:06;13.70;99.90
20512;DHT22;10414;52.074;5.126;2022-10-15T05:21:34;13.80;99.90
20512;DHT22;10414;52.074;5.126;2022-10-15T05:24:03;13.80;99.90
20512;DHT22;10414;52.074;5.126;2022-10-15T05:26:31;13.80;99.90
20512;DHT22;10414;52.074;5.126;2022-10-15T05:28:59;13.70;99.90
20512;DHT22;10414;52.074;5.126;2022-10-15T05:31:27;13.60;99.90
20512;DHT22;10414;52.074;5.126;2022-10-15T05:33:55;13.90;99.90
20512;DHT22;10414;52.074;5.126;2022-10-15T05:36:24;14.10;99.90
20512;DHT22;10414;52.074;5.126;2022-10-15T05:38:53;14.00;99.90
20512;DHT22;10414;52.074;5.126;2022-10-15T05:41:21;14.00;99.90
20512;DHT22;10414;52.074;5.126;2022-10-15T05:43:49;14.00;99.90
20512;DHT22;10414;52.074;5.126;2022-10-15T05:46:17;13.90;99.90
20512;DHT22;10414;52.074;5.126;2022-10-15T05:48:47;13.80;99.90
20512;DHT22;10414;52.074;5.126;2022-10-15T05:51:15;13.70;99.90
20512;DHT22;10414;52.074;5.126;2022-10-15T05:53:42;13.70;99.90
20512;DHT22;10414;52.074;5.126;2022-10-15T05:56:11;13.80;99.90
20512;DHT22;10414;52.074;5.126;2022-10-15T05:58:42;13.90;99.90
20512;DHT22;10414;52.074;5.126;2022-10-15T06:01:10;14.00;99.90
20512;DHT22;10414;52.074;5.126;2022-10-15T06:03:38;13.80;99.90
20512;DHT22;10414;52.074;5.126;2022-10-15T06:06:12;14.10;99.90
20512;DHT22;10414;52.074;5.126;2022-10-15T06:08:39;14.00;99.90
20512;DHT22;10414;52.074;5.126;2022-10-15T06:11:07;14.10;99.90
20512;DHT22;10414;52.074;5.126;2022-10-15T06:13:33;14.00;99.90
20512;DHT22;10414;52.074;5.126;2022-10-15T06:16:02;14.10;99.90
20512;DHT22;10414;52.074;5.126;2022-10-15T06:18:29;14.00;99.90
20512;DHT22;10414;52.074;5.126;2022-10-15T06:20:57;14.10;99.90
20512;DHT22;10414;52.074;5.126;2022-10-15T06:23:23;14.00;99.90
20512;DHT22;10414;52.074;5.126;2022-10-15T06:25:50;14.00;99.90
20512;DHT22;10414;52.074;5.126;2022-10-15T06:28:17;14.20;99.90
20512;DHT22;10414;52.074;5.126;2022-10-15T06:30:44;14.00;99.90
20512;DHT22;10414;52.074;5.126;2022-10-15T06:33:12;14.20;99.90
20512;DHT22;10414;52.074;5.126;2022-10-15T06:35:40;14.10;99.90
20512;DHT22;10414;52.074;5.126;2022-10-15T06:38:07;14.10;99.90
20512;DHT22;10414;52.074;5.126;2022-10-15T06:40:36;14.10;99.90
20512;DHT22;10414;52.074;5.126;2022-10-15T06:43:04;14.10;99.90
20512;DHT22;10414;52.074;5.126;2022-10-15T06:45:32;14.20;99.90
20512;DHT22;10414;52.074;5.126;2022-10-15T06:48:01;14.30;99.90
20512;DHT22;10414;52.074;5.126;2022-10-15T06:50:30;14.30;99.90
20512;DHT22;10414;52.074;5.126;2022-10-15T06:52:57;14.30;99.90
20512;DHT22;10414;52.074;5.126;2022-10-15T06:55:24;14.40;99.90
20512;DHT22;10414;52.074;5.126;2022-10-15T06:57:53;14.30;99.90
20512;DHT22;10414;52.074;5.126;2022-10-15T07:00:20;14.40;99.90
20512;DHT22;10414;52.074;5.126;2022-10-15T07:02:48;14.40;99.90
20512;DHT22;10414;52.074;5.126;2022-10-15T07:05:15;14.40;99.90
20512;DHT22;10414;52.074;5.126;2022-10-15T07:07:50;14.40;99.90
20512;DHT22;10414;52.074;5.126;2022-10-15T07:10:17;14.60;99.90
20512;DHT22;10414;52.074;5.126;2022-10-15T07:12:44;14.60;99.90
20512;DHT22;10414;52.074;5.126;2022-10-15T07:15:11;14.50;99.90
20512;DHT22;10414;52.074;5.126;2022-10-15T07:17:38;14.50;99.90
20512;DHT22;10414;52.074;5.126;2022-10-15T07:20:06;14.40;99.90
20512;DHT22;10414;52.074;5.126;2022-10-15T07:22:33;14.50;99.90
20512;DHT22;10414;52.074;5.126;2022-10-15T07:25:01;14.50;99.90
20512;DHT22;10414;52.074;5.126;2022-10-15T07:27:28;14.40;99.90
20512;DHT22;10414;52.074;5.126;2022-10-15T07:29:55;14.50;99.90
20512;DHT22;10414;52.074;5.126;2022-10-15T07:32:22;14.40;99.90
20512;DHT22;10414;52.074;5.126;2022-10-15T07:34:49;14.50;99.90
20512;DHT22;10414;52.074;5.126;2022-10-15T07:37:16;14.70;99.90
20512;DHT22;10414;52.074;5.126;2022-10-15T07:39:43;15.10;99.90
20512;DHT22;10414;52.074;5.126;2022-10-15T07:42:11;15.20;99.90
20512;DHT22;10414;52.074;5.126;2022-10-15T07:44:39;15.10;99.90
20512;DHT22;10414;52.074;5.126;2022-10-15T07:47:06;15.00;99.90
20512;DHT22;10414;52.074;5.126;2022-10-15T07:49:32;15.00;99.90
20512;DHT22;10414;52.074;5.126;2022-10-15T07:52:00;14.90;99.90
20512;DHT22;10414;52.074;5.126;2022-10-15T07:54:26;15.00;99.90
20512;DHT22;10414;52.074;5.126;2022-10-15T07:56:54;15.10;99.90
20512;DHT22;10414;52.074;5.126;2022-10-15T07:59:22;15.20;99.90
20512;DHT22;10414;52.074;5.126;2022-10-15T08:01:49;15.20;99.90
20512;DHT22;10414;52.074;5.126;2022-10-15T08:04:16;15.40;99.90
20512;DHT22;10414;52.074;5.126;2022-10-15T08:06:45;15.30;99.90
20512;DHT22;10414;52.074;5.126;2022-10-15T08:09:12;15.20;99.90
20512;DHT22;10414;52.074;5.126;2022-10-15T08:11:38;15.10;99.90
20512;DHT22;10414;52.074;5.126;2022-10-15T08:14:06;15.10;99.90
20512;DHT22;10414;52.074;5.126;2022-10-15T08:16:34;15.10;99.90
20512;DHT22;10414;52.074;5.126;2022-10-15T08:19:01;15.00;99.90
20512;DHT22;10414;52.074;5.126;2022-10-15T08:21:28;15.00;99.90
20512;DHT22;10414;52.074;5.126;2022-10-15T08:23:55;15.00;99.90
20512;DHT22;10414;52.074;5.126;2022-10-15T08:26:22;15.30;99.90
20512;DHT22;10414;52.074;5.126;2022-10-15T08:28:51;15.40;99.90
20512;DHT22;10414;52.074;5.126;2022-10-15T08:31:18;15.60;99.90
20512;DHT22;10414;52.074;5.126;2022-10-15T08:33:46;16.20;99.90
20512;DHT22;10414;52.074;5.126;2022-10-15T08:36:13;17.20;99.90
20512;DHT22;10414;52.074;5.126;2022-10-15T08:38:40;17.80;99.90
20512;DHT22;10414;52.074;5.126;2022-10-15T08:41:18;19.20;99.90
20512;DHT22;10414;52.074;5.126;2022-10-15T08:43:46;20.50;99.90
20512;DHT22;10414;52.074;5.126;2022-10-15T08:46:16;21.20;99.90
20512;DHT22;10414;52.074;5.126;2022-10-15T08:48:48;19.70;99.90
20512;DHT22;10414;52.074;5.126;2022-10-15T08:51:19;19.60;99.90
20512;DHT22;10414;52.074;5.126;2022-10-15T08:53:49;19.60;99.90
20512;DHT22;10414;52.074;5.126;2022-10-15T08:56:18;19.60;99.90
20512;DHT22;10414;52.074;5.126;2022-10-15T08:58:52;19.10;99.90
20512;DHT22;10414;52.074;5.126;2022-10-15T09:01:26;18.70;99.90
20512;DHT22;10414;52.074;5.126;2022-10-15T09:04:02;18.00;99.90
20512;DHT22;10414;52.074;5.126;2022-10-15T09:06:34;17.50;99.90
20512;DHT22;10414;52.074;5.126;2022-10-15T09:09:07;17.30;99.90
20512;DHT22;10414;52.074;5.126;2022-10-15T09:11:47;17.40;99.90
20512;DHT22;10414;52.074;5.126;2022-10-15T09:14:20;17.40;99.90
20512;DHT22;10414;52.074;5.126;2022-10-15T09:16:49;17.50;99.90
20512;DHT22;10414;52.074;5.126;2022-10-15T09:19:20;17.40;99.90
20512;DHT22;10414;52.074;5.126;2022-10-15T09:21:50;17.10;99.90
20512;DHT22;10414;52.074;5.126;2022-10-15T09:24:20;16.90;99.90
20512;DHT22;10414;52.074;5.126;2022-10-15T09:26:53;16.80;99.90
20512;DHT22;10414;52.074;5.126;2022-10-15T09:29:28;16.90;99.90
20512;DHT22;10414;52.074;5.126;2022-10-15T09:32:02;16.70;99.90
20512;DHT22;10414;52.074;5.126;2022-10-15T09:34:36;16.50;99.90
20512;DHT22;10414;52.074;5.126;2022-10-15T09:37:08;16.40;99.90
20512;DHT22;10414;52.074;5.126;2022-10-15T09:39:52;16.60;99.90
20512;DHT22;10414;52.074;5.126;2022-10-15T09:42:26;16.30;99.90
20512;DHT22;10414;52.074;5.126;2022-10-15T09:44:58;16.30;99.90
20512;DHT22;10414;52.074;5.126;2022-10-15T09:47:28;16.20;99.90
20512;DHT22;10414;52.074;5.126;2022-10-15T09:49:56;16.20;99.90
20512;DHT22;10414;52.074;5.126;2022-10-15T09:52:29;16.00;99.90
20512;DHT22;10414;52.074;5.126;2022-10-15T09:55:08;15.80;99.90
20512;DHT22;10414;52.074;5.126;2022-10-15T09:57:37;15.80;99.90
20512;DHT22;10414;52.074;5.126;2022-10-15T10:00:07;15.70;99.90
20512;DHT22;10414;52.074;5.126;2022-10-15T10:02:36;16.00;99.90
20512;DHT22;10414;52.074;5.126;2022-10-15T10:05:25;16.20;99.90
20512;DHT22;10414;52.074;5.126;2022-10-15T10:08:06;16.40;99.90
20512;DHT22;10414;52.074;5.126;2022-10-15T10:10:36;16.50;99.90
20512;DHT22;10414;52.074;5.126;2022-10-15T10:13:06;16.60;99.90
20512;DHT22;10414;52.074;5.126;2022-10-15T10:15:43;16.50;99.90
20512;DHT22;10414;52.074;5.126;2022-10-15T10:18:17;16.20;99.90
20512;DHT22;10414;52.074;5.126;2022-10-15T10:20:54;16.10;99.90
20512;DHT22;10414;52.074;5.126;2022-10-15T10:23:24;16.00;99.90
20512;DHT22;10414;52.074;5.126;2022-10-15T10:25:55;16.00;99.90
20512;DHT22;10414;52.074;5.126;2022-10-15T10:28:26;16.00;99.90
20512;DHT22;10414;52.074;5.126;2022-10-15T10:31:00;15.90;99.90
20512;DHT22;10414;52.074;5.126;2022-10-15T10:33:31;15.90;99.90
20512;DHT22;10414;52.074;5.126;2022-10-15T10:36:02;15.90;99.90
20512;DHT22;10414;52.074;5.126;2022-10-15T10:38:31;16.20;99.90
20512;DHT22;10414;52.074;5.126;2022-10-15T10:41:00;16.30;99.90
20512;DHT22;10414;52.074;5.126;2022-10-15T10:43:30;16.30;99.90
20512;DHT22;10414;52.074;5.126;2022-10-15T10:45:59;16.30;99.90
20512;DHT22;10414;52.074;5.126;2022-10-15T10:48:28;16.00;99.90
20512;DHT22;10414;52.074;5.126;2022-10-15T10:51:08;15.80;99.90
20512;DHT22;10414;52.074;5.126;2022-10-15T10:53:45;15.80;99.90
20512;DHT22;10414;52.074;5.126;2022-10-15T10:56:15;15.90;99.90
20512;DHT22;10414;52.074;5.126;2022-10-15T10:58:43;15.80;99.90
20512;DHT22;10414;52.074;5.126;2022-10-15T11:01:12;15.80;99.90
20512;DHT22;10414;52.074;5.126;2022-10-15T11:03:43;15.90;99.90
20512;DHT22;10414;52.074;5.126;2022-10-15T11:09:13;15.80;99.90
20512;DHT22;10414;52.074;5.126;2022-10-15T11:11:49;15.90;99.90
20512;DHT22;10414;52.074;5.126;2022-10-15T11:14:23;15.80;99.90
20512;DHT22;10414;52.074;5.126;2022-10-15T11:16:59;16.00;99.90
20512;DHT22;10414;52.074;5.126;2022-10-15T11:19:36;16.10;99.90
20512;DHT22;10414;52.074;5.126;2022-10-15T11:22:18;16.10;99.90
20512;DHT22;10414;52.074;5.126;2022-10-15T11:24:58;16.00;99.90
20512;DHT22;10414;52.074;5.126;2022-10-15T11:27:50;15.90;99.90
20512;DHT22;10414;52.074;5.126;2022-10-15T11:30:35;15.80;99.90
20512;DHT22;10414;52.074;5.126;2022-10-15T11:33:18;16.00;99.90
20512;DHT22;10414;52.074;5.126;2022-10-15T11:35:57;15.90;99.90
20512;DHT22;10414;52.074;5.126;2022-10-15T11:38:37;16.00;99.90
20512;DHT22;10414;52.074;5.126;2022-10-15T11:41:20;15.90;99.90
20512;DHT22;10414;52.074;5.126;2022-10-15T11:44:16;16.10;99.90
20512;DHT22;10414;52.074;5.126;2022-10-15T11:46:51;16.10;99.90
20512;DHT22;10414;52.074;5.126;2022-10-15T11:49:28;16.30;99.90
20512;DHT22;10414;52.074;5.126;2022-10-15T11:52:10;16.40;99.90
20512;DHT22;10414;52.074;5.126;2022-10-15T11:54:43;16.40;99.90
20512;DHT22;10414;52.074;5.126;2022-10-15T11:57:12;16.40;99.90
20512;DHT22;10414;52.074;5.126;2022-10-15T11:59:44;16.40;99.90
20512;DHT22;10414;52.074;5.126;2022-10-15T12:02:16;16.40;99.90
20512;DHT22;10414;52.074;5.126;2022-10-15T12:04:48;16.40;99.90
20512;DHT22;10414;52.074;5.126;2022-10-15T12:07:19;16.30;99.90
20512;DHT22;10414;52.074;5.126;2022-10-15T12:09:51;16.30;99.90
20512;DHT22;10414;52.074;5.126;2022-10-15T12:12:29;16.40;99.90
20512;DHT22;10414;52.074;5.126;2022-10-15T12:15:07;16.60;99.90
20512;DHT22;10414;52.074;5.126;2022-10-15T12:17:45;16.80;99.90
20512;DHT22;10414;52.074;5.126;2022-10-15T12:20:16;16.80;99.90
20512;DHT22;10414;52.074;5.126;2022-10-15T12:22:54;16.80;99.90
20512;DHT22;10414;52.074;5.126;2022-10-15T12:25:45;16.90;99.90
20512;DHT22;10414;52.074;5.126;2022-10-15T12:28:16;17.00;99.90
20512;DHT22;10414;52.074;5.126;2022-10-15T12:30:56;17.00;99.90
20512;DHT22;10414;52.074;5.126;2022-10-15T12:33:34;17.10;99.90
20512;DHT22;10414;52.074;5.126;2022-10-15T12:36:03;17.00;99.90
20512;DHT22;10414;52.074;5.126;2022-10-15T12:38:33;16.80;99.90
20512;DHT22;10414;52.074;5.126;2022-10-15T12:41:03;16.80;99.90
20512;DHT22;10414;52.074;5.126;2022-10-15T12:43:31;16.80;99.90
20512;DHT22;10414;52.074;5.126;2022-10-15T12:45:58;16.90;99.90
20512;DHT22;10414;52.074;5.126;2022-10-15T12:48:33;16.80;99.90
20512;DHT22;10414;52.074;5.126;2022-10-15T12:53:46;17.10;99.90
20512;DHT22;10414;52.074;5.126;2022-10-15T12:56:21;17.30;99.90
20512;DHT22;10414;52.074;5.126;2022-10-15T12:58:49;17.10;99.90
20512;DHT22;10414;52.074;5.126;2022-10-15T13:01:29;17.20;99.90
20512;DHT22;10414;52.074;5.126;2022-10-15T13:03:56;17.10;99.90
20512;DHT22;10414;52.074;5.126;2022-10-15T13:06:25;17.00;99.90
20512;DHT22;10414;52.074;5.126;2022-10-15T13:08:54;16.70;99.90
20512;DHT22;10414;52.074;5.126;2022-10-15T13:11:23;16.90;99.90
20512;DHT22;10414;52.074;5.126;2022-10-15T13:13:52;16.90;99.90
20512;DHT22;10414;52.074;5.126;2022-10-15T13:16:19;17.20;99.90
20512;DHT22;10414;52.074;5.126;2022-10-15T13:18:48;17.30;99.90
20512;DHT22;10414;52.074;5.126;2022-10-15T13:21:15;17.70;99.90
20512;DHT22;10414;52.074;5.126;2022-10-15T13:23:44;17.90;99.90
20512;DHT22;10414;52.074;5.126;2022-10-15T13:26:12;17.90;99.90
20512;DHT22;10414;52.074;5.126;2022-10-15T13:28:41;18.00;99.90
20512;DHT22;10414;52.074;5.126;2022-10-15T13:31:11;18.00;99.90
20512;DHT22;10414;52.074;5.126;2022-10-15T13:33:39;17.90;99.90
20512;DHT22;10414;52.074;5.126;2022-10-15T13:36:07;17.80;99.90
20512;DHT22;10414;52.074;5.126;2022-10-15T13:38:34;18.00;99.90
20512;DHT22;10414;52.074;5.126;2022-10-15T13:41:02;18.20;99.90
20512;DHT22;10414;52.074;5.126;2022-10-15T13:43:29;18.40;99.90
20512;DHT22;10414;52.074;5.126;2022-10-15T13:45:57;18.20;99.90
20512;DHT22;10414;52.074;5.126;2022-10-15T13:48:24;17.90;99.90
20512;DHT22;10414;52.074;5.126;2022-10-15T13:50:52;17.80;99.90
20512;DHT22;10414;52.074;5.126;2022-10-15T13:53:21;17.80;99.90
20512;DHT22;10414;52.074;5.126;2022-10-15T13:55:50;17.80;99.90
20512;DHT22;10414;52.074;5.126;2022-10-15T13:58:18;18.10;99.90
20512;DHT22;10414;52.074;5.126;2022-10-15T14:00:49;18.20;99.90
20512;DHT22;10414;52.074;5.126;2022-10-15T14:03:19;18.10;99.90
20512;DHT22;10414;52.074;5.126;2022-10-15T14:05:48;18.10;99.90
20512;DHT22;10414;52.074;5.126;2022-10-15T14:08:19;18.00;99.90
20512;DHT22;10414;52.074;5.126;2022-10-15T14:10:46;18.10;99.90
20512;DHT22;10414;52.074;5.126;2022-10-15T14:13:13;18.10;99.90
20512;DHT22;10414;52.074;5.126;2022-10-15T14:15:41;18.00;99.90
20512;DHT22;10414;52.074;5.126;2022-10-15T14:18:08;17.90;99.90
20512;DHT22;10414;52.074;5.126;2022-10-15T14:20:37;18.00;99.90
20512;DHT22;10414;52.074;5.126;2022-10-15T14:23:03;18.00;99.90
20512;DHT22;10414;52.074;5.126;2022-10-15T14:25:31;17.90;99.90
20512;DHT22;10414;52.074;5.126;2022-10-15T14:27:57;17.90;99.90
20512;DHT22;10414;52.074;5.126;2022-10-15T14:30:25;17.90;99.90
20512;DHT22;10414;52.074;5.126;2022-10-15T14:32:53;18.10;99.90
20512;DHT22;10414;52.074;5.126;2022-10-15T14:35:21;18.00;99.90
20512;DHT22;10414;52.074;5.126;2022-10-15T14:37:56;18.00;99.90
20512;DHT22;10414;52.074;5.126;2022-10-15T14:40:24;17.80;99.90
20512;DHT22;10414;52.074;5.126;2022-10-15T14:42:59;17.50;99.90
20512;DHT22;10414;52.074;5.126;2022-10-15T14:45:27;17.30;99.90
20512;DHT22;10414;52.074;5.126;2022-10-15T14:47:55;17.30;99.90
20512;DHT22;10414;52.074;5.126;2022-10-15T14:50:23;17.10;99.90
20512;DHT22;10414;52.074;5.126;2022-10-15T14:52:52;17.00;99.90
20512;DHT22;10414;52.074;5.126;2022-10-15T14:55:26;17.10;99.90
20512;DHT22;10414;52.074;5.126;2022-10-15T14:57:58;17.10;99.90
20512;DHT22;10414;52.074;5.126;2022-10-15T15:00:26;16.90;99.90
20512;DHT22;10414;52.074;5.126;2022-10-15T15:02:53;17.30;99.90
20512;DHT22;10414;52.074;5.126;2022-10-15T15:05:21;17.60;99.90
20512;DHT22;10414;52.074;5.126;2022-10-15T15:07:48;17.80;99.90
20512;DHT22;10414;52.074;5.126;2022-10-15T15:10:17;17.70;99.90
20512;DHT22;10414;52.074;5.126;2022-10-15T15:12:44;17.60;99.90
20512;DHT22;10414;52.074;5.126;2022-10-15T15:15:12;17.60;99.90
20512;DHT22;10414;52.074;5.126;2022-10-15T15:17:40;17.40;99.90
20512;DHT22;10414;52.074;5.126;2022-10-15T15:20:06;17.30;99.90
20512;DHT22;10414;52.074;5.126;2022-10-15T15:22:33;17.30;99.90
20512;DHT22;10414;52.074;5.126;2022-10-15T15:25:01;17.00;99.90
20512;DHT22;10414;52.074;5.126;2022-10-15T15:27:30;16.90;99.90
20512;DHT22;10414;52.074;5.126;2022-10-15T15:30:01;16.90;99.90
20512;DHT22;10414;52.074;5.126;2022-10-15T15:32:29;16.80;99.90
20512;DHT22;10414;52.074;5.126;2022-10-15T15:34:55;16.70;99.90
20512;DHT22;10414;52.074;5.126;2022-10-15T15:37:24;16.90;99.90
20512;DHT22;10414;52.074;5.126;2022-10-15T15:39:51;16.90;99.90
20512;DHT22;10414;52.074;5.126;2022-10-15T15:42:18;16.80;99.90
20512;DHT22;10414;52.074;5.126;2022-10-15T15:44:46;16.80;99.90
20512;DHT22;10414;52.074;5.126;2022-10-15T15:47:13;16.60;99.90
20512;DHT22;10414;52.074;5.126;2022-10-15T15:49:40;16.50;99.90
20512;DHT22;10414;52.074;5.126;2022-10-15T15:52:07;16.40;99.90